Time;durP1;ratioP1;P1;durP2;ratioP2;P2;SDS_P1;SDS_P2;PMS_P1;PMS_P2;Temp;Humidity;BMP_temperature;BMP_pressure;BME280_temperature;BME280_humidity;BME280_pressure;Samples;Min_cycle;Max_cycle;Signal;HPM_P1;HPM_P2
2021/05/13 00:00:41;;;;;;;4.80;4.40;;;12.40;99.90;;;;;;2049558;29;20030;-72
2021/05/13 00:01:41;;;;;;;5.00;4.60;;;12.40;99.90;;;;;;2058343;28;20129;-72
2021/05/13 00:02:43;;;;;;;5.03;4.63;;;12.40;99.90;;;;;;2049416;29;20043;-73
2021/05/13 00:03:43;;;;;;;4.95;4.55;;;12.30;99.90;;;;;;2049325;29;20556;-72
2021/05/13 00:04:44;;;;;;;5.03;4.57;;;12.40;99.90;;;;;;2049529;29;20075;-72
2021/05/13 00:05:45;;;;;;;5.03;4.63;;;12.40;99.90;;;;;;2057897;28;20046;-72
2021/05/13 00:06:45;;;;;;;6.13;5.18;;;12.40;99.90;;;;;;2041559;28;20059;-72
2021/05/13 00:07:46;;;;;;;5.00;4.60;;;12.30;99.90;;;;;;2046951;28;20520;-73
2021/05/13 00:08:55;;;;;;;5.47;5.07;;;12.30;99.90;;;;;;2057201;28;20448;-73
2021/05/13 00:09:55;;;;;;;5.60;5.10;;;12.30;99.90;;;;;;2049408;29;20149;-72
2021/05/13 00:11:07;;;;;;;6.35;5.20;;;12.30;99.90;;;;;;2049494;29;20035;-73
2021/05/13 00:12:15;;;;;;;5.55;5.05;;;12.30;99.90;;;;;;2049398;29;20502;-73
2021/05/13 00:13:16;;;;;;;5.47;5.00;;;12.30;99.90;;;;;;2042349;29;20043;-72
2021/05/13 00:14:17;;;;;;;5.47;4.97;;;12.30;99.90;;;;;;2041192;29;20062;-72
2021/05/13 00:15:21;;;;;;;5.70;5.20;;;12.30;99.90;;;;;;2049209;29;20449;-73
2021/05/13 00:16:27;;;;;;;4.95;4.55;;;12.30;99.90;;;;;;2049462;28;20098;-72
2021/05/13 00:17:28;;;;;;;5.85;5.30;;;12.30;99.90;;;;;;2049550;29;20098;-73
2021/05/13 00:18:29;;;;;;;5.10;4.70;;;12.40;99.90;;;;;;2048998;29;20083;-73
2021/05/13 00:19:29;;;;;;;4.97;4.57;;;12.40;99.90;;;;;;2048583;29;20047;-73
2021/05/13 00:20:36;;;;;;;5.63;5.13;;;12.40;99.90;;;;;;2048831;29;20796;-73
2021/05/13 00:21:39;;;;;;;5.70;5.20;;;12.40;99.90;;;;;;2049508;29;20399;-73
2021/05/13 00:22:40;;;;;;;5.75;5.25;;;12.40;99.90;;;;;;2049833;28;20070;-73
2021/05/13 00:23:40;;;;;;;6.18;5.57;;;12.30;99.90;;;;;;2049145;29;20031;-73
2021/05/13 00:24:41;;;;;;;6.00;5.47;;;12.30;99.90;;;;;;2041358;29;20027;-73
2021/05/13 00:25:42;;;;;;;6.35;5.75;;;12.30;99.90;;;;;;2048919;28;20764;-72
2021/05/13 00:26:47;;;;;;;5.53;5.13;;;12.30;99.90;;;;;;2048486;28;20126;-73
2021/05/13 00:27:49;;;;;;;5.88;5.38;;;12.30;99.90;;;;;;2050012;28;20057;-73
2021/05/13 00:28:49;;;;;;;6.15;5.65;;;12.30;99.90;;;;;;2057995;28;20035;-73
2021/05/13 00:29:50;;;;;;;6.10;5.60;;;12.30;99.90;;;;;;2049351;29;20506;-73
2021/05/13 00:30:51;;;;;;;6.00;5.50;;;12.30;99.90;;;;;;2049071;29;20031;-73
2021/05/13 00:31:51;;;;;;;5.82;5.32;;;12.30;99.90;;;;;;2057920;28;20031;-74
2021/05/13 00:32:53;;;;;;;6.07;5.57;;;12.40;99.90;;;;;;2057884;28;20041;-72
2021/05/13 00:33:53;;;;;;;6.25;5.75;;;12.30;99.90;;;;;;2057779;28;20491;-72
2021/05/13 00:34:54;;;;;;;5.97;5.35;;;12.30;99.90;;;;;;2057733;28;20030;-72
2021/05/13 00:35:54;;;;;;;6.05;5.45;;;12.30;99.90;;;;;;2055772;28;20768;-72
2021/05/13 00:36:55;;;;;;;6.10;5.60;;;12.30;99.90;;;;;;2056242;28;20029;-72
2021/05/13 00:37:56;;;;;;;5.93;5.43;;;12.30;99.90;;;;;;2060763;28;20031;-72
2021/05/13 00:38:57;;;;;;;5.50;5.10;;;12.30;99.90;;;;;;2057082;28;20031;-72
2021/05/13 00:39:58;;;;;;;5.32;4.93;;;12.30;99.90;;;;;;2057058;28;20082;-72
2021/05/13 00:40:58;;;;;;;5.72;5.20;;;12.30;99.90;;;;;;2057046;28;20164;-72
2021/05/13 00:41:59;;;;;;;6.20;5.70;;;12.40;99.90;;;;;;2057145;28;20840;-72
2021/05/13 00:43:01;;;;;;;6.07;5.57;;;12.40;99.90;;;;;;2048459;29;20548;-72
2021/05/13 00:44:02;;;;;;;5.80;5.30;;;12.40;99.90;;;;;;2048665;28;20015;-72
2021/05/13 00:45:05;;;;;;;5.07;4.68;;;12.40;99.90;;;;;;2048340;29;20054;-72
2021/05/13 00:46:06;;;;;;;5.40;5.00;;;12.40;99.90;;;;;;2048419;28;20434;-72
2021/05/13 00:47:06;;;;;;;5.57;5.13;;;12.40;99.90;;;;;;2048359;29;20035;-72
2021/05/13 00:48:13;;;;;;;5.47;5.03;;;12.30;99.90;;;;;;2048466;29;20394;-72
2021/05/13 00:49:16;;;;;;;5.50;5.00;;;12.40;99.90;;;;;;2048380;29;20498;-72
2021/05/13 00:50:17;;;;;;;4.90;4.50;;;12.40;99.90;;;;;;2048637;28;20035;-72
2021/05/13 00:51:17;;;;;;;5.13;4.72;;;12.40;99.90;;;;;;2056931;28;20023;-72
2021/05/13 00:52:20;;;;;;;5.63;5.13;;;12.40;99.90;;;;;;2057006;28;20034;-73
2021/05/13 00:53:24;;;;;;;5.32;4.82;;;12.40;99.90;;;;;;2048367;29;20183;-72
2021/05/13 00:54:25;;;;;;;5.80;5.20;;;12.40;99.90;;;;;;2048866;28;20033;-72
2021/05/13 00:55:25;;;;;;;5.00;4.60;;;12.40;99.90;;;;;;2048380;29;20034;-72
2021/05/13 00:56:28;;;;;;;5.03;4.63;;;12.40;99.90;;;;;;2047877;29;20437;-72
2021/05/13 00:57:29;;;;;;;5.22;4.82;;;12.40;99.90;;;;;;2048655;28;20029;-72
2021/05/13 00:58:32;;;;;;;5.20;4.70;;;12.40;99.90;;;;;;2048400;29;20027;-72
2021/05/13 00:59:37;;;;;;;5.40;5.00;;;12.40;99.90;;;;;;2048728;28;20367;-73
2021/05/13 01:00:42;;;;;;;5.38;4.88;;;12.40;99.90;;;;;;2048490;29;20035;-73
2021/05/13 01:02:48;;;;;;;4.72;4.32;;;12.30;99.90;;;;;;2049116;28;20439;-73
2021/05/13 01:03:48;;;;;;;5.38;4.68;;;12.30;99.90;;;;;;2057456;28;20027;-74
2021/05/13 01:04:49;;;;;;;4.50;4.10;;;12.30;99.90;;;;;;2057165;28;20041;-72
2021/05/13 01:05:49;;;;;;;4.90;4.50;;;12.30;99.90;;;;;;2057285;28;20035;-71
2021/05/13 01:06:50;;;;;;;4.28;3.88;;;12.30;99.90;;;;;;2049554;28;20118;-72
2021/05/13 01:07:51;;;;;;;4.30;4.00;;;12.30;99.90;;;;;;2041029;29;20054;-73
2021/05/13 01:08:52;;;;;;;4.07;3.78;;;12.30;99.90;;;;;;2033155;29;20459;-72
2021/05/13 01:09:52;;;;;;;4.97;4.57;;;12.20;99.90;;;;;;2033284;29;20087;-74
2021/05/13 01:10:53;;;;;;;4.10;3.80;;;12.30;99.90;;;;;;2041035;29;20082;-72
2021/05/13 01:12:00;;;;;;;4.22;3.88;;;12.20;99.90;;;;;;2041269;29;20499;-72
2021/05/13 01:13:07;;;;;;;3.80;3.50;;;12.20;99.90;;;;;;2049681;29;20548;-73
2021/05/13 01:15:38;;;;;;;3.80;3.50;;;12.30;99.90;;;;;;2049537;29;20024;-73
2021/05/13 01:16:48;;;;;;;3.55;3.25;;;12.30;99.90;;;;;;2049004;29;20023;-73
2021/05/13 01:18:06;;;;;;;3.20;3.00;;;12.30;99.90;;;;;;2049162;29;20710;-74
2021/05/13 01:19:07;;;;;;;3.40;3.10;;;12.30;99.90;;;;;;2040669;29;20038;-73
2021/05/13 01:20:09;;;;;;;2.92;2.72;;;12.30;99.90;;;;;;2041015;29;20031;-74
2021/05/13 01:21:13;;;;;;;2.90;2.70;;;12.30;99.90;;;;;;2032793;29;20087;-73
2021/05/13 01:22:16;;;;;;;3.20;3.00;;;12.30;99.90;;;;;;2041163;29;20167;-74
2021/05/13 01:23:17;;;;;;;2.80;2.60;;;12.30;99.90;;;;;;2049593;29;20459;-74
2021/05/13 01:24:18;;;;;;;3.03;2.72;;;12.30;99.90;;;;;;2049302;28;20364;-73
2021/05/13 01:25:19;;;;;;;3.20;3.00;;;12.30;99.90;;;;;;2040762;29;20035;-73
2021/05/13 01:26:21;;;;;;;3.30;3.10;;;12.20;99.90;;;;;;2040334;29;20126;-73
2021/05/13 01:27:21;;;;;;;3.35;3.15;;;12.20;99.90;;;;;;2049426;29;20034;-73
2021/05/13 01:28:27;;;;;;;2.95;2.75;;;12.30;99.90;;;;;;2049282;29;20030;-73
2021/05/13 01:29:28;;;;;;;3.17;2.88;;;12.20;99.90;;;;;;2041015;29;20373;-73
2021/05/13 01:30:29;;;;;;;3.42;3.13;;;12.20;99.90;;;;;;2040980;29;20491;-73
2021/05/13 01:31:31;;;;;;;3.20;3.00;;;12.20;99.90;;;;;;2040719;29;20036;-73
2021/05/13 01:32:31;;;;;;;3.15;2.95;;;12.20;99.90;;;;;;2049554;29;20030;-73
2021/05/13 01:33:32;;;;;;;3.20;3.00;;;12.20;99.90;;;;;;2041011;29;20194;-73
2021/05/13 01:34:33;;;;;;;3.60;3.20;;;12.20;99.90;;;;;;2041068;29;20047;-73
2021/05/13 01:35:33;;;;;;;3.88;3.58;;;12.20;99.90;;;;;;2049331;28;20490;-73
2021/05/13 01:36:35;;;;;;;3.78;3.47;;;12.20;99.90;;;;;;2054674;28;20490;-73
2021/05/13 01:37:35;;;;;;;4.25;3.90;;;12.20;99.90;;;;;;2056915;28;20039;-73
2021/05/13 01:38:36;;;;;;;3.95;3.65;;;12.20;99.90;;;;;;2057500;28;20026;-73
2021/05/13 01:39:37;;;;;;;4.13;3.83;;;12.20;99.90;;;;;;2040920;29;20035;-74
2021/05/13 01:40:38;;;;;;;3.90;3.60;;;12.20;99.90;;;;;;2040619;29;20542;-73
2021/05/13 01:41:40;;;;;;;4.32;3.92;;;12.20;99.90;;;;;;2057011;28;20117;-72
2021/05/13 01:42:41;;;;;;;4.50;4.10;;;12.20;99.90;;;;;;2040369;29;20028;-74
2021/05/13 01:43:41;;;;;;;4.10;3.80;;;12.20;99.90;;;;;;2040549;29;20054;-73
2021/05/13 01:44:42;;;;;;;4.25;3.92;;;12.10;99.90;;;;;;2048240;29;20063;-73
2021/05/13 01:45:42;;;;;;;4.00;3.70;;;12.10;99.90;;;;;;2048285;29;20593;-73
2021/05/13 01:46:43;;;;;;;4.30;3.90;;;12.10;99.90;;;;;;2047976;28;20597;-73
2021/05/13 01:47:44;;;;;;;4.10;3.80;;;12.10;99.90;;;;;;2056633;28;20030;-73
2021/05/13 01:48:45;;;;;;;4.00;3.70;;;12.10;99.90;;;;;;2056982;28;20500;-73
2021/05/13 01:49:46;;;;;;;4.35;4.00;;;12.10;99.90;;;;;;2048186;29;20058;-73
2021/05/13 01:50:48;;;;;;;4.35;3.75;;;12.10;99.90;;;;;;2048312;28;20469;-73
2021/05/13 01:51:49;;;;;;;3.60;3.30;;;12.20;99.90;;;;;;2056846;28;20096;-73
2021/05/13 01:52:50;;;;;;;4.00;3.70;;;12.20;99.90;;;;;;2048114;29;20027;-73
2021/05/13 01:53:51;;;;;;;3.95;3.65;;;12.20;99.90;;;;;;2048589;29;20036;-73
2021/05/13 01:54:51;;;;;;;4.10;3.80;;;12.20;99.90;;;;;;2048266;29;20039;-73
2021/05/13 01:55:52;;;;;;;4.20;3.90;;;12.20;99.90;;;;;;2039985;29;20503;-73
2021/05/13 01:57:00;;;;;;;4.18;3.55;;;12.10;99.90;;;;;;2048455;29;20078;-73
2021/05/13 01:58:01;;;;;;;4.35;3.95;;;12.10;99.90;;;;;;2057129;28;20030;-73
2021/05/13 01:59:02;;;;;;;4.20;3.78;;;12.10;99.90;;;;;;2048535;29;20031;-73
2021/05/13 02:00:04;;;;;;;4.25;3.85;;;12.10;99.90;;;;;;2048355;29;20110;-73
2021/05/13 02:01:06;;;;;;;4.13;3.67;;;12.10;99.90;;;;;;2048317;29;20106;-73
2021/05/13 02:02:07;;;;;;;4.40;4.10;;;12.10;99.90;;;;;;2048348;28;20114;-73
2021/05/13 02:03:08;;;;;;;4.10;3.80;;;12.10;99.90;;;;;;2056691;28;20401;-72
2021/05/13 02:04:09;;;;;;;4.18;3.88;;;12.10;99.90;;;;;;2048918;29;20054;-72
2021/05/13 02:05:10;;;;;;;4.43;4.05;;;12.10;99.90;;;;;;2048578;29;20468;-72
2021/05/13 02:06:11;;;;;;;4.70;4.30;;;12.10;99.90;;;;;;2033055;29;20032;-74
2021/05/13 02:07:13;;;;;;;4.30;4.00;;;12.10;99.90;;;;;;2041126;29;20028;-72
2021/05/13 02:08:13;;;;;;;4.78;4.20;;;12.10;99.90;;;;;;2048814;28;20582;-72
2021/05/13 02:09:14;;;;;;;4.38;4.03;;;12.10;99.90;;;;;;2040658;29;20063;-72
2021/05/13 02:10:15;;;;;;;4.40;4.00;;;12.10;99.90;;;;;;2032711;29;20035;-72
2021/05/13 02:11:16;;;;;;;4.30;4.00;;;12.10;99.90;;;;;;2048801;28;20111;-72
2021/05/13 02:12:17;;;;;;;3.92;3.63;;;12.10;99.90;;;;;;2056601;28;20026;-73
2021/05/13 02:13:17;;;;;;;5.00;4.50;;;12.10;99.90;;;;;;2056691;28;20031;-72
2021/05/13 02:14:18;;;;;;;4.20;3.90;;;12.10;99.90;;;;;;2057181;28;20023;-72
2021/05/13 02:15:19;;;;;;;4.60;4.20;;;12.10;99.90;;;;;;2057228;28;20114;-72
2021/05/13 02:16:19;;;;;;;4.60;4.20;;;12.10;99.90;;;;;;2056759;28;20118;-71
2021/05/13 02:17:20;;;;;;;4.05;3.65;;;12.10;99.90;;;;;;2048570;29;20027;-72
2021/05/13 02:18:21;;;;;;;4.78;4.38;;;12.10;99.90;;;;;;2048654;29;20019;-72
2021/05/13 02:19:22;;;;;;;4.40;4.00;;;12.10;99.90;;;;;;2057307;28;20050;-72
2021/05/13 02:20:24;;;;;;;5.00;3.92;;;12.10;99.90;;;;;;2057216;28;20425;-72
2021/05/13 02:21:24;;;;;;;4.63;4.22;;;12.10;99.90;;;;;;2048715;29;20027;-72
2021/05/13 02:22:25;;;;;;;4.60;4.20;;;12.10;99.90;;;;;;2048839;29;20796;-73
2021/05/13 02:23:26;;;;;;;4.50;4.10;;;12.00;99.90;;;;;;2048726;29;20122;-73
2021/05/13 02:24:27;;;;;;;4.30;3.92;;;12.00;99.90;;;;;;2040717;29;20038;-72
2021/05/13 02:25:31;;;;;;;4.13;3.83;;;12.00;99.90;;;;;;2040759;29;20023;-74
2021/05/13 02:26:32;;;;;;;4.93;4.50;;;12.10;99.90;;;;;;2048931;28;20066;-72
2021/05/13 02:27:33;;;;;;;4.55;4.15;;;12.10;99.90;;;;;;2056489;28;20023;-75
2021/05/13 02:28:33;;;;;;;4.68;4.25;;;12.10;99.90;;;;;;2056543;28;20033;-74
2021/05/13 02:29:34;;;;;;;5.25;4.82;;;12.10;99.90;;;;;;2048617;29;20482;-71
2021/05/13 02:30:35;;;;;;;4.82;4.43;;;12.10;99.90;;;;;;2057231;28;20074;-72
2021/05/13 02:31:36;;;;;;;5.22;4.82;;;12.10;99.90;;;;;;2056515;28;20752;-71
2021/05/13 02:32:37;;;;;;;5.15;4.70;;;12.10;99.90;;;;;;2056669;28;20054;-72
2021/05/13 02:33:37;;;;;;;4.55;4.15;;;12.10;99.90;;;;;;2056444;28;20041;-71
2021/05/13 02:34:38;;;;;;;5.13;4.72;;;12.10;99.90;;;;;;2056746;28;20033;-72
2021/05/13 02:35:39;;;;;;;5.65;5.15;;;12.10;99.90;;;;;;2048631;29;20054;-71
2021/05/13 02:36:40;;;;;;;4.72;4.32;;;12.10;99.90;;;;;;2040264;29;20044;-73
2021/05/13 02:37:41;;;;;;;5.45;4.97;;;12.10;99.90;;;;;;2048380;29;20027;-73
2021/05/13 02:38:42;;;;;;;5.88;5.13;;;12.10;99.90;;;;;;2048518;29;20110;-71
2021/05/13 02:39:43;;;;;;;6.10;5.60;;;12.10;99.90;;;;;;2040670;29;20059;-72
2021/05/13 02:40:43;;;;;;;6.20;5.65;;;12.10;99.90;;;;;;2040559;29;20035;-71
2021/05/13 02:41:44;;;;;;;6.18;5.18;;;12.10;99.90;;;;;;2056921;28;20031;-72
2021/05/13 02:42:45;;;;;;;5.72;5.22;;;12.10;99.90;;;;;;2057060;28;20482;-72
2021/05/13 02:43:46;;;;;;;6.30;5.80;;;12.10;99.90;;;;;;2057005;28;20053;-73
2021/05/13 02:44:46;;;;;;;6.47;5.80;;;12.10;99.90;;;;;;2056377;28;20034;-72
2021/05/13 02:45:47;;;;;;;6.38;5.78;;;12.10;99.90;;;;;;2056552;28;20030;-72
2021/05/13 02:46:48;;;;;;;6.82;6.22;;;12.10;99.90;;;;;;2048325;28;20023;-71
2021/05/13 02:47:48;;;;;;;6.63;6.03;;;12.10;99.90;;;;;;2048584;29;20474;-73
2021/05/13 02:48:49;;;;;;;7.50;6.65;;;12.10;99.90;;;;;;2040331;29;20154;-71
2021/05/13 02:49:49;;;;;;;7.63;6.43;;;12.10;99.90;;;;;;2048470;29;20051;-72
2021/05/13 02:50:50;;;;;;;7.88;7.07;;;12.10;99.90;;;;;;2057081;28;20031;-73
2021/05/13 02:51:51;;;;;;;7.63;6.82;;;12.10;99.90;;;;;;2056333;28;20034;-75
2021/05/13 02:52:51;;;;;;;7.93;7.20;;;12.10;99.90;;;;;;2048350;29;20035;-72
2021/05/13 02:53:52;;;;;;;7.85;7.05;;;12.10;99.90;;;;;;2048410;29;20110;-71
2021/05/13 02:54:52;;;;;;;7.72;7.00;;;12.10;99.90;;;;;;2048618;29;20446;-72
2021/05/13 02:55:53;;;;;;;8.50;7.60;;;12.10;99.90;;;;;;2056412;28;20031;-73
2021/05/13 02:56:54;;;;;;;8.68;7.88;;;12.10;99.90;;;;;;2056094;28;20058;-72
2021/05/13 02:57:55;;;;;;;7.97;7.22;;;12.10;99.90;;;;;;2056374;28;20034;-72
2021/05/13 02:58:56;;;;;;;8.07;7.28;;;12.10;99.90;;;;;;2056864;28;20026;-72
2021/05/13 03:00:04;;;;;;;9.50;7.47;;;12.10;99.90;;;;;;2055842;28;20019;-71
2021/05/13 03:01:08;;;;;;;8.80;7.95;;;12.10;99.90;;;;;;2048469;29;20035;-73
2021/05/13 03:02:09;;;;;;;9.25;7.63;;;12.10;99.90;;;;;;2048713;28;20118;-73
2021/05/13 03:03:09;;;;;;;9.10;8.27;;;12.20;99.90;;;;;;2056223;28;20030;-73
2021/05/13 03:04:11;;;;;;;8.70;7.57;;;12.20;99.90;;;;;;2056128;28;20155;-72
2021/05/13 03:05:15;;;;;;;8.65;7.78;;;12.10;99.90;;;;;;2048316;28;20510;-74
2021/05/13 03:06:16;;;;;;;7.85;7.05;;;12.20;99.90;;;;;;2048443;28;20039;-73
2021/05/13 03:07:16;;;;;;;9.57;8.57;;;12.20;99.90;;;;;;2057024;28;20031;-73
2021/05/13 03:08:17;;;;;;;9.88;8.88;;;12.20;99.90;;;;;;2056934;28;20023;-73
2021/05/13 03:09:19;;;;;;;9.60;8.70;;;12.20;99.90;;;;;;2056701;28;20077;-74
2021/05/13 03:11:54;;;;;;;10.48;9.38;;;12.10;99.90;;;;;;2032146;29;20052;-74
2021/05/13 03:12:55;;;;;;;10.60;8.98;;;12.10;99.90;;;;;;2035446;29;20495;-74
2021/05/13 03:13:58;;;;;;;11.88;9.88;;;12.10;99.90;;;;;;2048398;29;20455;-73
2021/05/13 03:14:58;;;;;;;10.07;8.95;;;12.10;99.90;;;;;;2040782;29;20035;-73
2021/05/13 03:15:59;;;;;;;10.25;9.23;;;12.20;99.90;;;;;;2048184;28;20122;-73
2021/05/13 03:17:01;;;;;;;10.98;9.27;;;12.20;99.90;;;;;;2047758;29;20039;-73
2021/05/13 03:18:02;;;;;;;10.93;9.82;;;12.10;99.90;;;;;;2048428;29;20146;-74
2021/05/13 03:19:04;;;;;;;11.13;9.30;;;12.10;99.90;;;;;;2048334;29;20036;-73
2021/05/13 03:20:06;;;;;;;9.85;8.85;;;12.10;99.90;;;;;;2048607;28;20050;-73
2021/05/13 03:21:20;;;;;;;10.30;8.73;;;12.10;99.90;;;;;;2048659;29;20046;-73
2021/05/13 03:22:20;;;;;;;10.30;9.20;;;12.10;99.90;;;;;;2048330;29;20094;-74
2021/05/13 03:23:27;;;;;;;9.82;8.70;;;12.20;99.90;;;;;;2040554;29;20040;-72
2021/05/13 03:24:37;;;;;;;11.10;9.55;;;12.20;99.90;;;;;;2048590;28;20024;-72
2021/05/13 03:25:40;;;;;;;10.45;9.30;;;12.20;99.90;;;;;;2048153;29;20031;-73
2021/05/13 03:26:56;;;;;;;10.93;9.80;;;12.10;99.90;;;;;;2040164;29;20495;-73
2021/05/13 03:28:07;;;;;;;11.15;9.95;;;12.20;99.90;;;;;;2050511;28;20055;-73
2021/05/13 03:29:08;;;;;;;11.60;10.40;;;12.10;99.90;;;;;;2057002;28;20142;-74
2021/05/13 03:30:10;;;;;;;11.57;10.38;;;12.10;99.90;;;;;;2056928;28;20038;-72
2021/05/13 03:31:11;;;;;;;10.57;9.45;;;12.10;99.90;;;;;;2056901;28;20027;-72
2021/05/13 03:32:11;;;;;;;11.20;9.95;;;12.10;99.90;;;;;;2056806;28;20026;-72
2021/05/13 03:33:13;;;;;;;12.82;10.40;;;12.10;99.90;;;;;;2056902;28;20513;-72
2021/05/13 03:34:14;;;;;;;11.18;9.75;;;12.10;99.90;;;;;;2056845;28;20039;-72
2021/05/13 03:35:15;;;;;;;10.48;9.38;;;12.10;99.90;;;;;;2056868;28;20027;-72
2021/05/13 03:36:16;;;;;;;12.20;10.10;;;12.10;99.90;;;;;;2056397;28;20498;-73
2021/05/13 03:37:16;;;;;;;11.32;9.15;;;12.10;99.90;;;;;;2056891;28;20033;-73
2021/05/13 03:38:17;;;;;;;9.90;8.90;;;12.10;99.90;;;;;;2056988;28;20047;-72
2021/05/13 03:39:19;;;;;;;11.48;9.95;;;12.10;99.90;;;;;;2057008;28;20023;-71
2021/05/13 03:40:19;;;;;;;12.57;10.13;;;12.10;99.90;;;;;;2048197;29;20032;-72
2021/05/13 03:41:20;;;;;;;11.57;10.35;;;12.10;99.90;;;;;;2047512;29;20453;-73
2021/05/13 03:42:21;;;;;;;12.30;10.27;;;12.10;99.90;;;;;;2040087;29;20022;-72
2021/05/13 03:43:22;;;;;;;11.50;10.30;;;12.10;99.90;;;;;;2040430;29;20506;-72
2021/05/13 03:44:22;;;;;;;11.82;10.45;;;12.10;99.90;;;;;;2032452;29;20076;-73
2021/05/13 03:45:23;;;;;;;11.68;10.25;;;12.10;99.90;;;;;;2040514;29;20020;-72
2021/05/13 03:46:24;;;;;;;10.48;9.38;;;12.10;99.90;;;;;;2048005;28;20058;-72
2021/05/13 03:47:24;;;;;;;11.02;9.73;;;12.10;99.90;;;;;;2047440;29;20585;-72
2021/05/13 03:48:25;;;;;;;11.50;10.25;;;12.10;99.90;;;;;;2055887;28;20041;-73
2021/05/13 03:49:26;;;;;;;12.38;10.93;;;12.10;99.90;;;;;;2047294;29;20112;-74
2021/05/13 03:50:26;;;;;;;11.43;9.77;;;12.10;99.90;;;;;;2047365;29;20099;-74
2021/05/13 03:51:27;;;;;;;10.55;9.45;;;12.10;99.90;;;;;;2055934;28;20449;-72
2021/05/13 03:52:28;;;;;;;11.60;10.40;;;12.10;99.90;;;;;;2056019;28;20030;-73
2021/05/13 03:53:28;;;;;;;11.18;10.00;;;12.10;99.90;;;;;;2047312;29;20524;-73
2021/05/13 03:54:29;;;;;;;12.43;9.80;;;12.10;99.90;;;;;;2047417;29;20151;-73
2021/05/13 03:55:29;;;;;;;10.75;9.65;;;12.10;99.90;;;;;;2055903;28;20054;-73
2021/05/13 03:56:30;;;;;;;10.52;9.43;;;12.10;99.90;;;;;;2055372;28;20031;-73
2021/05/13 03:57:31;;;;;;;10.70;9.20;;;12.00;99.90;;;;;;2047342;29;20469;-73
2021/05/13 03:58:37;;;;;;;12.18;9.80;;;12.10;99.90;;;;;;2047555;28;20067;-73
2021/05/13 03:59:40;;;;;;;10.65;9.55;;;12.10;99.90;;;;;;2055995;28;20034;-72
2021/05/13 04:00:49;;;;;;;12.65;10.30;;;12.10;99.90;;;;;;2055964;28;20019;-74
2021/05/13 04:02:23;;;;;;;10.60;9.30;;;12.10;99.90;;;;;;2046450;29;20043;-73
2021/05/13 04:03:23;;;;;;;10.77;9.45;;;12.00;99.90;;;;;;2052427;28;20019;-73
2021/05/13 04:04:24;;;;;;;11.13;10.00;;;12.00;99.90;;;;;;2047278;29;20023;-73
2021/05/13 04:05:25;;;;;;;9.57;8.60;;;12.10;99.90;;;;;;2039635;29;20024;-73
2021/05/13 04:06:25;;;;;;;12.27;9.88;;;12.00;99.90;;;;;;2046785;29;20034;-73
2021/05/13 04:07:34;;;;;;;11.80;10.02;;;12.00;99.90;;;;;;2047383;29;20136;-73
2021/05/13 04:08:35;;;;;;;11.20;9.68;;;12.10;99.90;;;;;;2048597;28;20156;-72
2021/05/13 04:09:36;;;;;;;11.02;9.85;;;12.10;99.90;;;;;;2040064;29;20059;-73
2021/05/13 04:10:37;;;;;;;11.73;9.45;;;12.10;99.90;;;;;;2040337;29;20063;-73
2021/05/13 04:11:40;;;;;;;13.43;10.15;;;12.00;99.90;;;;;;2048730;29;20083;-71
2021/05/13 04:12:41;;;;;;;10.85;9.63;;;12.10;99.90;;;;;;2041936;29;20036;-72
2021/05/13 04:13:43;;;;;;;11.30;9.93;;;12.10;99.90;;;;;;2049141;28;20383;-73
2021/05/13 04:14:44;;;;;;;11.20;10.00;;;12.10;99.90;;;;;;2057401;28;20121;-73
2021/05/13 04:15:47;;;;;;;12.60;9.45;;;12.00;99.90;;;;;;2049008;29;20533;-73
2021/05/13 04:16:53;;;;;;;11.73;9.45;;;12.00;99.90;;;;;;2049005;28;20835;-74
2021/05/13 04:17:54;;;;;;;12.38;9.25;;;12.10;99.90;;;;;;2049195;29;20534;-72
2021/05/13 04:18:55;;;;;;;11.52;9.65;;;12.10;99.90;;;;;;2049415;29;20027;-72
2021/05/13 04:19:56;;;;;;;12.00;9.55;;;12.00;99.90;;;;;;2049496;29;20031;-74
2021/05/13 04:20:56;;;;;;;13.25;10.07;;;12.10;99.90;;;;;;2049320;29;20059;-72
2021/05/13 04:21:57;;;;;;;10.38;9.27;;;12.10;99.90;;;;;;2057933;28;20062;-72
2021/05/13 04:22:57;;;;;;;11.70;9.23;;;12.00;99.90;;;;;;2057717;28;20068;-72
2021/05/13 04:23:58;;;;;;;12.10;9.07;;;12.10;99.90;;;;;;2057991;28;20022;-73
2021/05/13 04:24:59;;;;;;;12.98;10.73;;;12.10;99.90;;;;;;2057881;28;20409;-73
2021/05/13 04:25:59;;;;;;;11.50;10.25;;;12.10;99.90;;;;;;2057456;28;20780;-73
2021/05/13 04:27:00;;;;;;;12.85;10.13;;;12.10;99.90;;;;;;2057542;28;20046;-74
2021/05/13 04:28:01;;;;;;;15.32;10.63;;;12.10;99.90;;;;;;2049713;29;20138;-73
2021/05/13 04:29:03;;;;;;;12.48;10.10;;;12.00;99.90;;;;;;2049277;29;20046;-74
2021/05/13 04:30:04;;;;;;;14.00;10.35;;;12.00;99.90;;;;;;2049517;28;20023;-72
2021/05/13 04:31:05;;;;;;;14.00;11.07;;;12.00;99.90;;;;;;2058175;28;20039;-72
2021/05/13 04:32:06;;;;;;;14.57;11.05;;;12.00;99.90;;;;;;2058156;28;20035;-73
2021/05/13 04:33:06;;;;;;;13.57;10.70;;;11.90;99.90;;;;;;2058113;28;20041;-73
2021/05/13 04:34:07;;;;;;;13.95;11.18;;;11.90;99.90;;;;;;2058027;28;20038;-72
2021/05/13 04:35:08;;;;;;;14.25;11.00;;;11.90;99.90;;;;;;2049387;29;20145;-72
2021/05/13 04:36:09;;;;;;;13.30;10.50;;;11.90;99.90;;;;;;2049114;28;20055;-73
2021/05/13 04:37:09;;;;;;;14.80;11.48;;;11.90;99.90;;;;;;2049521;29;20056;-72
2021/05/13 04:38:15;;;;;;;17.67;11.85;;;11.90;99.90;;;;;;2049411;29;20123;-73
2021/05/13 04:39:15;;;;;;;12.45;10.63;;;11.90;99.90;;;;;;2058018;28;20019;-72
2021/05/13 04:40:16;;;;;;;13.60;10.93;;;11.90;99.90;;;;;;2057709;28;20036;-73
2021/05/13 04:41:17;;;;;;;11.77;10.40;;;11.90;99.90;;;;;;2057936;28;20021;-72
2021/05/13 04:42:18;;;;;;;11.82;10.07;;;11.90;99.90;;;;;;2049199;29;20023;-73
2021/05/13 04:43:19;;;;;;;11.95;10.32;;;11.90;99.90;;;;;;2049433;29;20019;-71
2021/05/13 04:44:20;;;;;;;12.45;9.48;;;11.90;99.90;;;;;;2049510;28;20073;-72
2021/05/13 04:45:20;;;;;;;11.40;9.50;;;11.90;99.90;;;;;;2058061;28;20027;-73
2021/05/13 04:46:23;;;;;;;13.32;10.45;;;12.00;99.90;;;;;;2058148;28;20022;-73
2021/05/13 04:49:52;;;;;;;12.88;10.30;;;12.00;99.90;;;;;;2058479;28;20041;-72
2021/05/13 04:50:53;;;;;;;13.52;10.60;;;12.00;99.90;;;;;;2058582;28;20410;-73
2021/05/13 04:51:53;;;;;;;13.98;11.38;;;12.00;99.90;;;;;;2049684;29;20035;-72
2021/05/13 04:52:54;;;;;;;12.73;10.32;;;12.00;99.90;;;;;;2049691;29;20094;-72
2021/05/13 04:53:55;;;;;;;13.40;10.93;;;12.00;99.90;;;;;;2058076;28;20440;-72
2021/05/13 04:54:57;;;;;;;13.38;10.10;;;12.00;99.90;;;;;;2057769;28;20058;-72
2021/05/13 04:55:59;;;;;;;13.18;10.55;;;12.00;99.90;;;;;;2057672;28;20034;-72
2021/05/13 04:57:00;;;;;;;14.13;11.02;;;12.00;99.90;;;;;;2049299;29;20110;-73
2021/05/13 04:58:01;;;;;;;13.27;10.57;;;12.00;99.90;;;;;;2041457;29;20027;-73
2021/05/13 04:59:02;;;;;;;11.70;10.50;;;12.00;99.90;;;;;;2041096;29;20024;-72
2021/05/13 05:00:05;;;;;;;13.38;10.02;;;12.00;99.90;;;;;;2049463;29;20066;-72
2021/05/13 05:01:06;;;;;;;12.07;10.32;;;12.00;99.90;;;;;;2057684;28;20031;-73
2021/05/13 05:02:07;;;;;;;12.10;10.77;;;12.10;99.90;;;;;;2057700;28;20019;-72
2021/05/13 05:03:07;;;;;;;15.80;10.57;;;12.00;99.90;;;;;;2041161;29;20491;-74
2021/05/13 05:04:08;;;;;;;13.75;10.25;;;12.00;99.90;;;;;;2041502;29;20051;-72
2021/05/13 05:05:09;;;;;;;12.98;10.57;;;12.00;99.90;;;;;;2057581;28;20031;-72
2021/05/13 05:06:10;;;;;;;10.65;9.43;;;12.00;99.90;;;;;;2057768;28;20035;-73
2021/05/13 05:07:11;;;;;;;13.63;10.10;;;12.00;99.90;;;;;;2049279;29;20027;-71
2021/05/13 05:08:11;;;;;;;12.32;10.25;;;12.00;99.90;;;;;;2041211;29;20115;-71
2021/05/13 05:09:12;;;;;;;15.10;9.82;;;12.00;99.90;;;;;;2047054;29;20031;-72
2021/05/13 05:10:13;;;;;;;12.90;10.00;;;12.00;99.90;;;;;;2057706;28;20041;-72
2021/05/13 05:11:16;;;;;;;12.70;10.38;;;12.00;99.90;;;;;;2049515;29;20556;-73
2021/05/13 05:12:16;;;;;;;12.18;10.13;;;12.00;99.90;;;;;;2049615;29;20029;-73
2021/05/13 05:13:17;;;;;;;13.43;10.60;;;12.00;99.90;;;;;;2049888;29;20031;-72
2021/05/13 05:14:18;;;;;;;11.10;9.63;;;12.00;99.90;;;;;;2049240;29;20027;-74
2021/05/13 05:15:18;;;;;;;11.13;9.38;;;12.00;99.90;;;;;;2048810;29;20058;-72
2021/05/13 05:16:19;;;;;;;11.10;8.93;;;12.00;99.90;;;;;;2033119;29;20112;-72
2021/05/13 05:17:20;;;;;;;11.23;9.95;;;12.00;99.90;;;;;;2041090;29;20039;-72
2021/05/13 05:18:22;;;;;;;12.65;9.80;;;12.00;99.90;;;;;;2040924;29;20503;-72
2021/05/13 05:19:22;;;;;;;11.00;9.60;;;12.00;99.90;;;;;;2041481;28;20028;-74
2021/05/13 05:20:23;;;;;;;10.32;9.23;;;11.90;99.90;;;;;;2041088;29;20475;-72
2021/05/13 05:21:23;;;;;;;11.15;9.40;;;12.00;99.90;;;;;;2041336;29;20067;-72
2021/05/13 05:22:24;;;;;;;10.60;9.40;;;11.90;99.90;;;;;;2048725;28;20118;-73
2021/05/13 05:23:29;;;;;;;11.13;9.43;;;12.00;99.90;;;;;;2049197;29;20023;-72
2021/05/13 05:24:30;;;;;;;10.82;8.88;;;12.00;99.90;;;;;;2058350;28;20034;-70
2021/05/13 05:25:30;;;;;;;11.30;9.55;;;12.00;99.90;;;;;;2057532;28;20026;-75